createdAt,value
2018-04-25T00:02:45.384Z,13.00
2018-04-25T00:07:48.248Z,12.90
2018-04-25T00:12:51.174Z,12.80
2018-04-25T00:17:54.138Z,12.80
2018-04-25T00:22:57.039Z,12.70
2018-04-25T00:27:59.931Z,12.60
2018-04-25T00:33:02.803Z,12.60
2018-04-25T00:38:06.682Z,12.50
2018-04-25T00:43:09.611Z,12.30
2018-04-25T00:48:12.574Z,12.30
2018-04-25T00:53:15.764Z,12.30
2018-04-25T00:58:19.523Z,12.00
2018-04-25T01:03:22.793Z,12.00
2018-04-25T01:08:26.437Z,12.00
2018-04-25T01:13:29.378Z,11.90
2018-04-25T01:18:32.314Z,12.10
2018-04-25T01:23:37.122Z,11.90
2018-04-25T01:29:02.053Z,11.80
2018-04-25T01:34:15.231Z,11.80
2018-04-25T01:39:27.141Z,11.90
2018-04-25T01:44:35.676Z,11.90
2018-04-25T01:55:44.596Z,11.90
2018-04-25T02:01:05.881Z,11.80
2018-04-25T02:06:09.497Z,11.80
2018-04-25T02:11:13.637Z,11.70
2018-04-25T02:16:17.085Z,11.70
2018-04-25T02:21:19.902Z,11.80
2018-04-25T02:26:22.796Z,11.90
2018-04-25T02:31:25.723Z,12.00
2018-04-25T02:36:28.715Z,12.40
2018-04-25T02:41:32.444Z,13.00
2018-04-25T02:46:36.488Z,13.30
2018-04-25T02:51:40.703Z,13.20
2018-04-25T02:56:43.625Z,13.30
2018-04-25T03:01:48.165Z,13.50
2018-04-25T03:06:51.349Z,13.40
2018-04-25T03:11:55.244Z,13.40
2018-04-25T03:16:58.129Z,13.30
2018-04-25T03:22:00.998Z,13.40
2018-04-25T03:27:04.455Z,13.40
2018-04-25T03:32:07.293Z,13.30
2018-04-25T03:37:10.904Z,13.10
2018-04-25T03:42:14.537Z,13.00
2018-04-25T03:47:18.181Z,12.80
2018-04-25T03:52:21.057Z,12.70
2018-04-25T03:57:24.094Z,12.80
2018-04-25T04:02:27.240Z,12.70
2018-04-25T04:07:30.380Z,12.50
2018-04-25T04:12:33.266Z,12.40
2018-04-25T04:17:37.056Z,12.30
2018-04-25T04:22:39.914Z,12.20
2018-04-25T04:27:42.927Z,12.10
2018-04-25T04:32:45.732Z,12.00
2018-04-25T04:37:48.606Z,12.10
2018-04-25T04:42:51.453Z,12.20
2018-04-25T04:47:54.824Z,12.20
2018-04-25T04:52:57.691Z,12.30
2018-04-25T04:58:01.533Z,12.40
2018-04-25T05:03:05.233Z,12.50
2018-04-25T05:08:08.374Z,12.40
2018-04-25T05:13:11.299Z,12.50
2018-04-25T05:18:15.269Z,12.50
2018-04-25T05:23:18.101Z,12.50
2018-04-25T05:28:21.005Z,12.60
2018-04-25T05:33:23.900Z,12.70
2018-04-25T05:38:27.524Z,13.10
2018-04-25T05:43:33.488Z,13.20
2018-04-25T05:48:38.070Z,13.70
2018-04-25T05:53:40.926Z,13.60
2018-04-25T05:58:45.209Z,14.10
2018-04-25T06:03:48.087Z,14.40
2018-04-25T06:09:03.598Z,14.70
2018-04-25T06:14:06.707Z,15.00
2018-04-25T06:19:11.674Z,15.20
2018-04-25T06:24:14.885Z,15.50
2018-04-25T06:29:18.631Z,15.90
2018-04-25T06:34:21.720Z,16.00
2018-04-25T06:39:24.732Z,16.10
2018-04-25T06:44:27.546Z,16.20
2018-04-25T06:49:30.642Z,16.30
2018-04-25T06:54:33.536Z,16.30
2018-04-25T06:59:36.581Z,16.50
2018-04-25T07:04:39.703Z,16.70
2018-04-25T07:09:44.707Z,17.00
2018-04-25T07:14:48.283Z,16.90
2018-04-25T07:19:51.193Z,17.30
2018-04-25T07:25:09.771Z,17.40
2018-04-25T07:30:13.824Z,17.50
2018-04-25T07:35:33.201Z,18.30
2018-04-25T07:40:38.311Z,18.20
2018-04-25T07:45:41.264Z,18.50
2018-04-25T07:50:44.150Z,18.40
2018-04-25T07:55:46.983Z,18.30
2018-04-25T08:00:49.848Z,18.10
2018-04-25T08:05:53.106Z,18.00
2018-04-25T08:10:57.190Z,18.00
2018-04-25T08:16:12.499Z,17.90
2018-04-25T08:21:28.380Z,18.10
2018-04-25T08:26:31.220Z,18.30
2018-04-25T08:31:34.033Z,18.10
2018-04-25T08:36:37.869Z,18.30
2018-04-25T08:41:40.732Z,18.20
2018-04-25T08:46:43.531Z,18.20
2018-04-25T08:51:46.352Z,18.30
2018-04-25T08:56:49.131Z,18.30
2018-04-25T09:01:52.059Z,18.30
2018-04-25T09:06:55.644Z,18.70
2018-04-25T09:11:58.503Z,18.70
2018-04-25T09:17:01.364Z,18.80
2018-04-25T09:22:04.262Z,18.90
2018-04-25T09:27:07.178Z,19.20
2018-04-25T09:32:11.151Z,19.80
2018-04-25T09:37:13.967Z,19.80
2018-04-25T09:42:16.759Z,20.10
2018-04-25T09:47:19.561Z,20.70
2018-04-25T09:52:23.445Z,20.70
2018-04-25T09:57:28.746Z,21.20
2018-04-25T10:02:33.876Z,21.60
2018-04-25T10:07:39.713Z,21.70
2018-04-25T10:12:42.536Z,21.60
2018-04-25T10:17:46.664Z,21.80
2018-04-25T10:22:49.492Z,21.90
2018-04-25T10:27:53.327Z,22.00
2018-04-25T10:32:56.165Z,22.00
2018-04-25T10:37:59.008Z,22.10
2018-04-25T10:43:03.572Z,22.60
2018-04-25T10:48:06.632Z,22.60
2018-04-25T10:53:10.424Z,22.70
2018-04-25T10:58:13.222Z,22.10
2018-04-25T11:03:18.176Z,22.10
2018-04-25T11:08:21.415Z,22.00
2018-04-25T11:13:24.189Z,22.20
2018-04-25T11:18:27.034Z,22.30
2018-04-25T11:23:29.868Z,22.90
2018-04-25T11:28:32.735Z,23.20
2018-04-25T11:33:35.535Z,23.50
2018-04-25T11:38:39.448Z,22.80
2018-04-25T11:43:42.401Z,22.70
2018-04-25T11:48:45.559Z,22.80
2018-04-25T11:53:48.671Z,22.80
2018-04-25T11:58:51.995Z,22.60
2018-04-25T12:03:55.569Z,22.70
2018-04-25T12:08:59.145Z,22.60
2018-04-25T12:14:02.795Z,22.90
2018-04-25T12:19:08.943Z,22.80
2018-04-25T12:24:14.403Z,22.50
2018-04-25T12:29:18.217Z,21.30
2018-04-25T12:34:22.091Z,21.30
2018-04-25T12:39:25.105Z,21.30
2018-04-25T12:44:28.460Z,21.40
2018-04-25T12:49:31.301Z,21.90
2018-04-25T12:54:34.302Z,21.90
2018-04-25T13:04:52.800Z,21.30
2018-04-25T13:09:57.140Z,22.10
2018-04-25T13:15:00.014Z,22.20
2018-04-25T13:20:02.825Z,21.80
2018-04-25T13:25:05.616Z,21.60
2018-04-25T13:30:08.409Z,21.30
2018-04-25T13:35:11.243Z,21.70
2018-04-25T13:40:14.086Z,22.60
2018-04-25T13:45:16.907Z,22.50
2018-04-25T13:50:20.801Z,22.30
2018-04-25T13:55:23.735Z,22.20
2018-04-25T14:00:27.272Z,22.50
2018-04-25T14:05:31.019Z,22.40
2018-04-25T14:10:34.559Z,22.10
2018-04-25T14:15:37.453Z,22.10
2018-04-25T14:20:41.316Z,22.10
2018-04-25T14:25:46.245Z,22.20
2018-04-25T14:30:52.400Z,22.60
2018-04-25T14:35:55.875Z,22.30
2018-04-25T14:40:59.884Z,21.10
2018-04-25T14:46:04.089Z,20.70
2018-04-25T14:51:08.351Z,20.70
2018-04-25T14:56:11.794Z,20.70
2018-04-25T15:01:16.721Z,20.60
2018-04-25T15:06:19.815Z,20.90
2018-04-25T15:11:23.149Z,20.60
2018-04-25T15:16:26.688Z,20.60
2018-04-25T15:21:31.513Z,20.20
2018-04-25T15:26:35.122Z,19.70
2018-04-25T15:31:38.088Z,19.60
2018-04-25T15:36:40.903Z,19.60
2018-04-25T15:41:43.679Z,19.20
2018-04-25T15:46:47.535Z,17.60
2018-04-25T15:51:50.421Z,17.60
2018-04-25T15:56:53.285Z,17.30
2018-04-25T16:01:56.112Z,17.00
2018-04-25T16:06:58.924Z,16.60
2018-04-25T16:12:02.749Z,16.30
2018-04-25T16:17:05.537Z,16.30
2018-04-25T16:22:08.387Z,16.20
2018-04-25T16:27:11.963Z,16.30
2018-04-25T16:32:14.768Z,16.20
2018-04-25T16:37:17.655Z,16.10
2018-04-25T16:42:20.427Z,16.00
2018-04-25T16:47:23.231Z,16.00
2018-04-25T16:52:26.067Z,16.00
2018-04-25T16:57:29.105Z,16.00
2018-04-25T17:02:33.238Z,15.80
2018-04-25T17:07:36.474Z,15.70
2018-04-25T17:12:39.792Z,15.90
2018-04-25T17:17:43.281Z,16.20
2018-04-25T17:22:46.139Z,16.40
2018-04-25T17:27:49.002Z,16.40
2018-04-25T17:32:51.829Z,16.30
2018-04-25T17:37:55.477Z,16.40
2018-04-25T17:42:58.416Z,16.30
2018-04-25T17:48:01.263Z,16.20
2018-04-25T17:53:04.837Z,16.10
2018-04-25T17:58:07.793Z,16.00
2018-04-25T18:03:10.691Z,16.10
2018-04-25T18:08:14.898Z,16.00
2018-04-25T18:13:17.809Z,15.90
2018-04-25T18:18:20.691Z,15.80
2018-04-25T18:23:23.622Z,15.70
2018-04-25T18:44:39.911Z,15.20
2018-04-25T18:49:58.519Z,15.20
2018-04-25T18:55:14.223Z,15.10
2018-04-25T19:00:17.237Z,15.10
2018-04-25T19:05:57.386Z,15.10
2018-04-25T19:11:01.188Z,14.90
2018-04-25T19:16:04.822Z,14.90
2018-04-25T19:21:08.463Z,14.70
2018-04-25T19:26:11.707Z,14.70
2018-04-25T19:31:17.505Z,14.40
2018-04-25T19:36:20.318Z,14.40
2018-04-25T19:41:29.110Z,14.60
2018-04-25T19:46:43.301Z,14.50
2018-04-25T19:51:46.604Z,14.70
2018-04-25T19:56:49.721Z,14.70
2018-04-25T20:01:53.041Z,14.60
2018-04-25T20:06:56.749Z,14.40
2018-04-25T20:12:00.790Z,14.50
2018-04-25T20:22:42.900Z,14.40
2018-04-25T20:27:45.989Z,14.50
2018-04-25T20:32:50.680Z,14.40
2018-04-25T20:37:54.024Z,14.30
2018-04-25T20:42:58.013Z,14.40
2018-04-25T20:48:00.847Z,14.50
2018-04-25T20:53:05.029Z,14.40
2018-04-25T20:58:13.254Z,14.40
2018-04-25T21:03:19.745Z,14.30
2018-04-25T21:08:26.220Z,14.00
2018-04-25T21:13:32.281Z,14.00
2018-04-25T21:18:37.598Z,13.90
2018-04-25T21:23:42.725Z,14.00
2018-04-25T21:28:46.445Z,13.70
2018-04-25T21:33:59.637Z,13.70
2018-04-25T21:39:03.219Z,13.60
2018-04-25T21:44:15.347Z,13.50
2018-04-25T21:49:18.610Z,13.30
2018-04-25T21:54:26.734Z,13.20
2018-04-25T21:59:33.432Z,13.30
2018-04-25T22:04:37.088Z,13.30
2018-04-25T22:09:40.883Z,13.20
2018-04-25T22:14:44.006Z,13.20
2018-04-25T22:19:49.675Z,13.20
2018-04-25T22:24:52.481Z,13.20
2018-04-25T22:29:56.219Z,13.20
2018-04-25T22:35:00.303Z,13.10
2018-04-25T22:40:04.883Z,12.90
2018-04-25T22:45:10.091Z,12.70
2018-04-25T22:50:13.732Z,12.60
2018-04-25T23:00:31.028Z,12.40
2018-04-25T23:05:36.789Z,12.40
2018-04-25T23:10:46.144Z,12.50
2018-04-25T23:15:49.857Z,12.50
2018-04-25T23:20:58.047Z,12.50
2018-04-25T23:26:00.886Z,12.50
2018-04-25T23:31:03.668Z,12.40
2018-04-25T23:36:07.295Z,12.20
2018-04-25T23:41:11.161Z,12.10
2018-04-25T23:46:15.680Z,12.00
2018-04-25T23:51:18.520Z,12.00
